Time;durP1;ratioP1;P1;durP2;ratioP2;P2;SDS_P1;SDS_P2;PMS_P1;PMS_P2;Temp;Humidity;BMP_temperature;BMP_pressure;BME280_temperature;BME280_humidity;BME280_pressure;Samples;Min_cycle;Max_cycle;Signal;HPM_P1;HPM_P2
2023/07/25 01:00:05;;;;;;;5.90;3.85;;;24.30;82.10;;;;;;6081751;23;20022;-80
2023/07/25 01:02:31;;;;;;;;;;;24.20;83.20;;;;;;4948899;29;20547;-81
2023/07/25 01:04:57;;;;;;;10.93;4.65;;;24.20;82.50;;;;;;4958500;29;19910;-81
2023/07/25 01:07:23;;;;;;;6.10;5.07;;;24.20;83.20;;;;;;4958645;29;20090;-81
2023/07/25 01:09:49;;;;;;;6.80;5.13;;;24.30;83.00;;;;;;4954449;29;20118;-82
2023/07/25 01:12:15;;;;;;;5.43;4.43;;;24.30;82.60;;;;;;4954147;29;20051;-81
2023/07/25 01:14:41;;;;;;;6.60;4.40;;;24.30;82.30;;;;;;4995154;23;20043;-83
2023/07/25 01:17:13;;;;;;;7.15;4.25;;;24.40;82.30;;;;;;4937539;29;20027;-84
2023/07/25 01:19:41;;;;;;;5.63;4.50;;;24.40;81.80;;;;;;4954347;28;20031;-84
2023/07/25 01:22:08;;;;;;;5.72;4.13;;;24.40;81.90;;;;;;4953537;28;20390;-85
2023/07/25 01:24:42;;;;;;;7.07;4.53;;;24.50;81.30;;;;;;4947048;29;20059;-85
2023/07/25 01:27:08;;;;;;;4.80;3.63;;;24.50;80.10;;;;;;4947580;29;20039;-85
2023/07/25 01:29:34;;;;;;;7.68;3.85;;;24.50;80.80;;;;;;4953918;29;20030;-85
2023/07/25 01:32:00;;;;;;;6.67;3.90;;;24.50;80.40;;;;;;4950340;29;20028;-85
2023/07/25 01:34:25;;;;;;;4.53;3.10;;;24.50;79.60;;;;;;4924682;29;20032;-84
2023/07/25 01:36:53;;;;;;;6.72;3.42;;;24.60;79.60;;;;;;4947534;29;20427;-85
2023/07/25 01:39:19;;;;;;;12.75;4.28;;;24.50;79.50;;;;;;4952091;29;20031;-85
2023/07/25 01:41:45;;;;;;;7.47;3.80;;;24.50;79.50;;;;;;4953788;29;20278;-85
2023/07/25 01:44:12;;;;;;;6.60;3.95;;;24.60;79.20;;;;;;4950652;29;20027;-85
2023/07/25 01:46:40;;;;;;;7.13;4.13;;;24.50;79.10;;;;;;4947055;29;20525;-85
2023/07/25 01:49:10;;;;;;;4.80;4.13;;;24.50;79.00;;;;;;4950642;29;20402;-85
2023/07/25 01:51:36;;;;;;;4.70;3.70;;;24.50;79.30;;;;;;4953335;29;20031;-84
2023/07/25 01:54:03;;;;;;;7.30;4.03;;;24.40;79.50;;;;;;4950504;29;20671;-84
2023/07/25 01:56:29;;;;;;;6.35;3.63;;;24.40;79.90;;;;;;4937134;29;20079;-84
2023/07/25 01:58:55;;;;;;;8.83;4.27;;;24.40;80.40;;;;;;4926135;29;20123;-85
2023/07/25 02:01:21;;;;;;;13.30;4.53;;;24.30;80.30;;;;;;4934518;29;20032;-84
2023/07/25 02:03:47;;;;;;;6.60;4.70;;;24.30;80.30;;;;;;4939639;29;20486;-84
2023/07/25 02:06:13;;;;;;;7.33;5.40;;;24.20;80.50;;;;;;4953791;29;20502;-85
2023/07/25 02:08:39;;;;;;;7.03;4.40;;;24.20;80.60;;;;;;4953760;29;20501;-85
2023/07/25 02:11:05;;;;;;;6.17;4.70;;;24.20;81.40;;;;;;4953573;29;20390;-85
2023/07/25 02:13:31;;;;;;;6.47;4.77;;;24.10;81.50;;;;;;4937687;29;20035;-85
2023/07/25 02:15:56;;;;;;;8.87;5.20;;;24.10;81.60;;;;;;4953679;29;20402;-85
2023/07/25 02:18:22;;;;;;;8.80;5.47;;;24.10;81.30;;;;;;4953631;28;20035;-85
2023/07/25 02:20:48;;;;;;;10.20;5.40;;;24.20;81.50;;;;;;4953543;28;20073;-85
2023/07/25 02:23:14;;;;;;;8.23;5.30;;;24.20;81.70;;;;;;4953474;28;20031;-85
2023/07/25 02:25:40;;;;;;;8.53;5.10;;;24.20;81.60;;;;;;4953408;29;20082;-84
2023/07/25 02:28:05;;;;;;;5.57;4.93;;;24.10;81.60;;;;;;4953411;28;20528;-85
2023/07/25 02:30:31;;;;;;;7.90;5.53;;;24.10;81.70;;;;;;4953349;28;20027;-84
2023/07/25 02:32:57;;;;;;;7.33;5.10;;;24.10;81.50;;;;;;4953304;28;20093;-85
2023/07/25 02:35:23;;;;;;;11.10;5.67;;;24.10;81.40;;;;;;4937402;29;20042;-85
2023/07/25 02:37:49;;;;;;;10.77;4.87;;;24.10;81.60;;;;;;4954465;28;20054;-84
2023/07/25 02:40:15;;;;;;;6.93;5.30;;;24.10;81.40;;;;;;4953083;29;20540;-84
2023/07/25 02:42:42;;;;;;;7.37;4.90;;;24.20;81.40;;;;;;4953076;29;20035;-84
2023/07/25 02:45:08;;;;;;;9.38;4.45;;;24.20;81.30;;;;;;4952928;29;20027;-84
2023/07/25 02:47:34;;;;;;;6.18;4.80;;;24.20;81.60;;;;;;4953112;29;20031;-84
2023/07/25 02:49:59;;;;;;;8.33;4.70;;;24.10;81.60;;;;;;4953106;29;20029;-84
2023/07/25 02:52:25;;;;;;;9.27;5.77;;;24.10;81.60;;;;;;4948826;29;20490;-84
2023/07/25 02:54:51;;;;;;;7.47;5.47;;;24.00;81.30;;;;;;4944777;29;20031;-85
2023/07/25 02:57:17;;;;;;;10.67;5.57;;;23.90;82.00;;;;;;4948998;29;20032;-85
2023/07/25 02:59:43;;;;;;;6.87;3.53;;;23.50;83.90;;;;;;4949387;29;20047;-84
2023/07/25 03:02:10;;;;;;;6.50;1.50;;;23.00;82.70;;;;;;4941830;29;20118;-84
2023/07/25 03:04:36;;;;;;;9.20;2.47;;;22.90;79.80;;;;;;4952271;29;20363;-85
2023/07/25 03:07:02;;;;;;;2.03;1.40;;;22.70;80.10;;;;;;4935881;29;20127;-86
2023/07/25 03:09:30;;;;;;;13.52;2.70;;;21.70;83.70;;;;;;4966383;28;20043;-85
2023/07/25 03:11:55;;;;;;;13.50;3.22;;;21.10;92.90;;;;;;4952449;29;20042;-83
2023/07/25 03:14:25;;;;;;;10.13;2.60;;;20.30;99.90;;;;;;4952453;28;20490;-83
2023/07/25 03:16:51;;;;;;;22.10;5.45;;;19.70;99.90;;;;;;4949285;29;20115;-83
2023/07/25 03:19:17;;;;;;;9.38;3.70;;;19.70;99.90;;;;;;4949474;28;20039;-83
2023/07/25 03:21:42;;;;;;;8.07;2.97;;;19.60;99.90;;;;;;4933334;29;20051;-83
2023/07/25 03:24:08;;;;;;;14.77;4.37;;;19.70;99.90;;;;;;4946537;28;20087;-83
2023/07/25 03:26:34;;;;;;;8.48;4.18;;;19.60;99.90;;;;;;4959061;28;20031;-83
2023/07/25 03:29:00;;;;;;;9.30;5.00;;;19.70;99.90;;;;;;4949302;29;20032;-84
2023/07/25 03:31:26;;;;;;;8.20;5.53;;;20.00;99.90;;;;;;4940946;29;20401;-84
2023/07/25 03:33:52;;;;;;;6.45;3.95;;;20.10;99.90;;;;;;4947082;29;20475;-83
2023/07/25 03:36:17;;;;;;;4.50;2.87;;;20.20;99.90;;;;;;4949313;29;20036;-83
2023/07/25 03:38:43;;;;;;;3.67;2.60;;;20.20;99.90;;;;;;4930232;29;20027;-84
2023/07/25 03:41:10;;;;;;;5.70;1.92;;;20.10;99.90;;;;;;4952282;28;20565;-84
2023/07/25 03:43:36;;;;;;;2.90;1.67;;;20.00;99.90;;;;;;4952023;28;20031;-84
2023/07/25 03:46:02;;;;;;;5.65;2.03;;;19.90;99.90;;;;;;4952507;29;20043;-84
2023/07/25 03:48:28;;;;;;;3.58;2.13;;;19.90;99.90;;;;;;4949863;29;20023;-85
2023/07/25 03:50:54;;;;;;;2.65;2.05;;;19.90;99.90;;;;;;4956110;29;20478;-84
2023/07/25 03:53:20;;;;;;;5.63;2.35;;;19.90;99.90;;;;;;4941988;29;20031;-87
2023/07/25 03:55:45;;;;;;;3.85;2.38;;;19.90;99.90;;;;;;4953427;29;20032;-85
2023/07/25 03:58:11;;;;;;;2.97;2.38;;;19.80;99.90;;;;;;4964391;28;20066;-86
2023/07/25 04:00:38;;;;;;;2.85;2.10;;;19.90;99.90;;;;;;4956953;29;20059;-81
2023/07/25 04:03:04;;;;;;;3.83;2.05;;;20.00;99.90;;;;;;4945849;29;20089;-81
2023/07/25 04:05:29;;;;;;;2.27;2.07;;;20.00;99.90;;;;;;4966783;28;20811;-81
2023/07/25 04:07:55;;;;;;;2.17;1.60;;;20.10;99.90;;;;;;4954351;29;20114;-80
2023/07/25 04:10:21;;;;;;;2.57;2.00;;;20.20;99.90;;;;;;4961940;28;20104;-81
2023/07/25 04:12:47;;;;;;;8.67;1.60;;;20.20;99.90;;;;;;4924629;29;20119;-82
2023/07/25 04:15:13;;;;;;;2.73;1.83;;;20.20;99.90;;;;;;4937474;29;20142;-82
2023/07/25 04:17:59;;;;;;;4.68;1.80;;;20.20;99.90;;;;;;4926490;29;20079;-81
2023/07/25 04:20:25;;;;;;;3.17;1.90;;;20.20;99.90;;;;;;4950479;29;20027;-83
2023/07/25 04:22:51;;;;;;;4.72;2.00;;;20.20;99.90;;;;;;4950309;29;20075;-84
2023/07/25 04:25:17;;;;;;;5.53;2.10;;;20.20;99.90;;;;;;4956074;29;20414;-83
2023/07/25 04:27:42;;;;;;;3.35;1.80;;;20.30;99.90;;;;;;4952317;29;20070;-82
2023/07/25 04:30:09;;;;;;;3.17;2.17;;;20.40;99.90;;;;;;4941415;29;20039;-83
2023/07/25 04:32:35;;;;;;;4.20;2.60;;;20.40;99.90;;;;;;4942202;29;20042;-84
2023/07/25 04:35:13;;;;;;;4.97;2.63;;;20.40;99.90;;;;;;4949316;28;20106;-80
2023/07/25 04:37:39;;;;;;;8.32;2.47;;;20.50;99.90;;;;;;4939693;28;20406;-81
2023/07/25 04:40:05;;;;;;;5.50;3.03;;;20.50;99.90;;;;;;4927265;29;20029;-81
2023/07/25 04:42:31;;;;;;;4.28;3.13;;;20.60;99.90;;;;;;4927030;29;20094;-80
2023/07/25 04:44:57;;;;;;;4.72;3.08;;;20.60;99.90;;;;;;4972432;28;20521;-81
2023/07/25 04:51:44;;;;;;;4.20;3.00;;;20.70;99.90;;;;;;4938588;29;20493;-81
2023/07/25 04:54:10;;;;;;;7.25;3.30;;;20.80;99.90;;;;;;4939862;29;20039;-81
2023/07/25 04:56:38;;;;;;;7.57;3.33;;;20.80;99.90;;;;;;4974641;28;20031;-82
2023/07/25 04:59:04;;;;;;;4.57;2.88;;;20.90;99.90;;;;;;4971540;28;20027;-82
2023/07/25 05:01:29;;;;;;;3.55;2.80;;;20.80;99.90;;;;;;4972645;28;20035;-84
2023/07/25 05:03:55;;;;;;;4.25;3.28;;;20.90;99.90;;;;;;4949480;28;20094;-80
2023/07/25 05:06:21;;;;;;;5.00;3.13;;;20.80;99.90;;;;;;4937176;29;20035;-80
2023/07/25 05:08:47;;;;;;;7.63;3.43;;;20.80;99.90;;;;;;4963196;28;20058;-80
2023/07/25 05:11:12;;;;;;;4.37;3.60;;;20.90;99.90;;;;;;4972659;28;20082;-80
2023/07/25 05:13:38;;;;;;;4.00;3.60;;;20.90;99.90;;;;;;4949071;29;20079;-81
2023/07/25 05:16:04;;;;;;;8.43;3.60;;;20.90;99.90;;;;;;4939061;29;20095;-81
2023/07/25 05:18:30;;;;;;;6.80;3.83;;;21.00;99.90;;;;;;4947816;29;20031;-80
2023/07/25 05:20:57;;;;;;;;;;;21.10;99.90;;;;;;4975295;28;20631;-81
2023/07/25 05:23:23;;;;;;;4.85;3.63;;;21.20;99.90;;;;;;4951992;29;19918;-82
2023/07/25 05:25:49;;;;;;;5.00;3.80;;;21.10;99.90;;;;;;4937411;29;20371;-83
2023/07/25 05:28:18;;;;;;;9.33;3.27;;;21.10;99.90;;;;;;4960984;28;20035;-83
2023/07/25 05:30:44;;;;;;;5.72;3.75;;;21.20;99.90;;;;;;4955480;29;20019;-81
2023/07/25 05:33:10;;;;;;;5.55;3.45;;;21.30;99.90;;;;;;4953517;29;20032;-82
2023/07/25 05:35:35;;;;;;;3.50;2.97;;;21.40;99.90;;;;;;4955624;29;20572;-82
2023/07/25 05:38:02;;;;;;;9.03;3.60;;;21.40;99.90;;;;;;4938974;29;20457;-82
2023/07/25 05:40:28;;;;;;;7.10;3.33;;;21.50;99.90;;;;;;4956710;29;20035;-82
2023/07/25 05:42:54;;;;;;;5.55;2.90;;;21.50;99.90;;;;;;4958576;28;20409;-81
2023/07/25 05:45:20;;;;;;;9.05;3.45;;;21.50;99.90;;;;;;4955368;29;20035;-82
2023/07/25 05:47:46;;;;;;;6.90;2.87;;;21.60;99.90;;;;;;4952721;29;20023;-82
2023/07/25 05:50:12;;;;;;;6.90;2.95;;;21.70;99.90;;;;;;4936467;29;20030;-80
2023/07/25 05:52:38;;;;;;;6.40;3.63;;;21.70;99.90;;;;;;4940189;29;20028;-82
2023/07/25 05:55:04;;;;;;;4.77;3.67;;;21.70;99.90;;;;;;4936493;29;20047;-81
2023/07/25 05:57:30;;;;;;;10.48;3.70;;;21.70;99.90;;;;;;4925402;29;20665;-82
2023/07/25 05:59:56;;;;;;;6.57;3.60;;;21.80;99.90;;;;;;4955114;28;20114;-81
2023/07/25 06:02:21;;;;;;;4.63;3.35;;;21.90;99.90;;;;;;4953535;29;20031;-81
2023/07/25 06:04:47;;;;;;;5.13;3.33;;;22.00;99.90;;;;;;4971465;28;20474;-82
2023/07/25 06:07:14;;;;;;;8.43;3.00;;;22.10;99.90;;;;;;4969960;28;20115;-82
2023/07/25 06:09:40;;;;;;;6.25;3.33;;;22.20;99.90;;;;;;4942607;29;20037;-81
2023/07/25 06:12:09;;;;;;;6.75;3.40;;;22.30;99.00;;;;;;4955143;28;20438;-81
2023/07/25 06:14:35;;;;;;;6.63;4.00;;;22.40;99.10;;;;;;4946128;29;20475;-80
2023/07/25 06:17:01;;;;;;;5.40;3.38;;;22.50;99.60;;;;;;4936617;29;20079;-83
2023/07/25 06:19:27;;;;;;;5.43;3.37;;;22.50;99.10;;;;;;4934621;29;20035;-81
2023/07/25 06:21:53;;;;;;;4.07;3.63;;;22.70;98.60;;;;;;4950618;29;20271;-83
2023/07/25 06:24:19;;;;;;;6.67;3.60;;;22.70;97.40;;;;;;4950722;29;20023;-80
2023/07/25 06:26:45;;;;;;;6.53;3.67;;;22.90;96.60;;;;;;4937262;29;20032;-82
2023/07/25 06:29:11;;;;;;;3.97;2.93;;;23.00;95.90;;;;;;4936968;29;20016;-83
2023/07/25 06:31:37;;;;;;;4.13;3.60;;;23.10;95.80;;;;;;4950636;29;20095;-82
2023/07/25 06:34:03;;;;;;;8.65;3.15;;;23.20;95.10;;;;;;4945692;29;20059;-80
2023/07/25 06:36:28;;;;;;;4.63;3.50;;;23.00;94.60;;;;;;4954010;29;20074;-82
2023/07/25 06:38:54;;;;;;;5.23;3.60;;;22.90;95.20;;;;;;4951808;28;20035;-84
2023/07/25 06:41:20;;;;;;;4.47;3.80;;;22.80;95.00;;;;;;4970517;28;20038;-80
2023/07/25 06:43:46;;;;;;;4.90;3.40;;;22.70;95.40;;;;;;4961638;28;20036;-81
2023/07/25 06:46:12;;;;;;;5.63;3.43;;;22.70;95.80;;;;;;4935406;29;20072;-82
2023/07/25 06:48:37;;;;;;;6.53;3.33;;;22.60;96.30;;;;;;4947997;29;20050;-81
2023/07/25 06:51:03;;;;;;;4.30;2.80;;;22.60;96.60;;;;;;4954806;29;20114;-81
2023/07/25 06:53:29;;;;;;;5.13;3.17;;;22.60;96.20;;;;;;4970622;28;20027;-79
2023/07/25 06:55:55;;;;;;;4.22;2.83;;;22.50;96.30;;;;;;4953749;29;20034;-83
2023/07/25 06:58:21;;;;;;;3.80;2.83;;;22.50;96.30;;;;;;4965221;28;20019;-82
2023/07/25 07:00:46;;;;;;;5.07;2.97;;;22.50;96.10;;;;;;4956148;28;20644;-81
2023/07/25 07:03:14;;;;;;;7.33;3.30;;;22.50;95.30;;;;;;4953388;28;20102;-81
2023/07/25 07:05:40;;;;;;;4.78;2.80;;;22.50;95.40;;;;;;4936348;29;20059;-81
2023/07/25 07:08:06;;;;;;;9.13;3.27;;;22.40;95.70;;;;;;4943387;29;20027;-80
2023/07/25 07:10:33;;;;;;;5.33;2.97;;;22.40;95.80;;;;;;4949421;29;20046;-82
2023/07/25 07:12:59;;;;;;;;;;;22.40;95.90;;;;;;4954050;29;20027;-81
2023/07/25 07:15:25;;;;;;;5.85;3.63;;;22.30;96.60;;;;;;4972662;23;19930;-82
2023/07/25 07:17:54;;;;;;;16.67;3.83;;;22.30;96.60;;;;;;4933888;29;20039;-81
2023/07/25 07:20:20;;;;;;;5.30;3.08;;;22.30;97.40;;;;;;4933204;29;20544;-84
2023/07/25 07:22:46;;;;;;;6.28;4.00;;;22.30;96.90;;;;;;4933567;29;20401;-81
2023/07/25 07:25:12;;;;;;;7.13;4.10;;;22.30;96.90;;;;;;4934590;29;20023;-82
2023/07/25 07:27:38;;;;;;;7.07;4.55;;;22.10;97.20;;;;;;4917629;29;20375;-83
2023/07/25 07:30:04;;;;;;;7.00;5.60;;;22.00;98.00;;;;;;4934400;29;20038;-80
2023/07/25 07:32:30;;;;;;;8.13;4.65;;;21.90;99.30;;;;;;4954022;28;20066;-82
2023/07/25 07:34:56;;;;;;;8.93;5.43;;;21.60;99.90;;;;;;4953639;29;20456;-82
2023/07/25 07:37:22;;;;;;;10.80;5.43;;;21.50;99.90;;;;;;4953949;28;20520;-82
2023/07/25 07:39:48;;;;;;;11.55;5.68;;;21.60;99.90;;;;;;4953829;28;20023;-83
2023/07/25 07:42:13;;;;;;;6.87;4.13;;;21.70;99.90;;;;;;4953907;29;20090;-83
2023/07/25 07:44:39;;;;;;;7.10;3.80;;;21.80;99.20;;;;;;4953714;28;20024;-82
2023/07/25 07:47:06;;;;;;;10.50;4.67;;;21.80;98.60;;;;;;4953805;28;20031;-81
2023/07/25 07:49:35;;;;;;;5.78;4.65;;;21.90;98.80;;;;;;4953646;28;20422;-82
2023/07/25 07:52:01;;;;;;;4.65;4.05;;;21.80;99.10;;;;;;4968329;28;20031;-84
2023/07/25 07:54:27;;;;;;;5.93;5.13;;;22.00;99.20;;;;;;4952472;29;20031;-82
2023/07/25 07:56:53;;;;;;;6.88;4.05;;;22.10;98.80;;;;;;4952295;29;20552;-83
2023/07/25 07:59:18;;;;;;;5.57;3.83;;;22.10;98.20;;;;;;4968489;28;20030;-83
2023/07/25 08:01:44;;;;;;;5.93;4.67;;;22.20;97.50;;;;;;4953514;29;20027;-81
2023/07/25 08:04:11;;;;;;;5.72;5.13;;;22.30;97.90;;;;;;4968261;28;20034;-81
2023/07/25 08:06:36;;;;;;;6.70;4.43;;;22.30;97.20;;;;;;4968510;28;20118;-82
2023/07/25 08:09:02;;;;;;;8.07;5.03;;;22.20;97.00;;;;;;4952689;29;20509;-80
2023/07/25 08:11:28;;;;;;;4.82;4.30;;;22.30;97.20;;;;;;4954029;28;20035;-81
2023/07/25 08:13:54;;;;;;;6.40;4.83;;;22.30;97.10;;;;;;4953495;28;20042;-80
2023/07/25 08:16:20;;;;;;;5.65;4.43;;;22.50;97.30;;;;;;4955521;28;20047;-80
2023/07/25 08:18:45;;;;;;;5.77;4.00;;;22.70;97.10;;;;;;4952502;29;20031;-80
2023/07/25 08:21:11;;;;;;;7.90;4.57;;;23.00;96.90;;;;;;4953532;28;20058;-80
2023/07/25 08:23:37;;;;;;;9.33;5.23;;;23.10;96.60;;;;;;4953573;28;20478;-80
2023/07/25 08:26:03;;;;;;;9.03;5.10;;;23.30;96.10;;;;;;4952766;28;20039;-80
2023/07/25 08:28:29;;;;;;;7.63;5.00;;;23.40;96.00;;;;;;4968038;28;20055;-80
2023/07/25 08:31:02;;;;;;;5.73;4.57;;;23.50;95.70;;;;;;4969796;28;20110;-80
2023/07/25 08:33:31;;;;;;;6.65;4.88;;;23.60;95.70;;;;;;4971572;28;20039;-80
2023/07/25 08:35:57;;;;;;;4.50;3.97;;;23.70;95.80;;;;;;4956844;28;20448;-80
2023/07/25 08:38:23;;;;;;;5.97;3.13;;;23.70;95.70;;;;;;4956863;28;20035;-80
2023/07/25 08:41:15;;;;;;;6.57;3.58;;;23.70;95.30;;;;;;4956551;28;20031;-80
2023/07/25 08:43:43;;;;;;;4.65;3.00;;;23.60;94.50;;;;;;4956444;29;20039;-80
2023/07/25 08:46:11;;;;;;;3.70;2.55;;;23.60;95.40;;;;;;4974001;28;20035;-80
2023/07/25 08:48:38;;;;;;;4.50;2.15;;;23.70;95.70;;;;;;4968537;29;20039;-81
2023/07/25 08:51:13;;;;;;;2.70;1.75;;;23.80;95.00;;;;;;4968185;28;20492;-81
2023/07/25 08:53:45;;;;;;;2.63;1.95;;;23.80;94.00;;;;;;4983538;28;20043;-80
2023/07/25 08:56:13;;;;;;;3.03;2.15;;;23.90;93.90;;;;;;4968529;28;20027;-80
2023/07/25 08:58:43;;;;;;;3.15;2.05;;;23.90;94.10;;;;;;4968007;28;20068;-81
2023/07/25 09:01:10;;;;;;;3.25;2.50;;;24.00;94.80;;;;;;4983450;28;20450;-81
2023/07/25 09:03:37;;;;;;;3.08;2.55;;;24.10;94.10;;;;;;4966695;28;20151;-80
2023/07/25 09:06:04;;;;;;;4.95;2.70;;;24.10;93.00;;;;;;4983461;28;20043;-82
2023/07/25 09:08:30;;;;;;;4.45;2.65;;;24.10;93.00;;;;;;4968246;28;20035;-81
2023/07/25 09:10:59;;;;;;;3.97;2.40;;;24.20;93.00;;;;;;4968811;28;20061;-80
2023/07/25 09:13:25;;;;;;;5.05;2.88;;;24.40;93.00;;;;;;4981937;28;20107;-79
2023/07/25 09:15:51;;;;;;;4.45;2.70;;;24.50;92.60;;;;;;4966041;28;20425;-79
2023/07/25 09:18:17;;;;;;;6.20;3.10;;;24.70;92.60;;;;;;4965261;28;20024;-80
2023/07/25 09:20:43;;;;;;;3.63;2.95;;;24.90;92.50;;;;;;4981758;28;20027;-80
2023/07/25 09:23:19;;;;;;;3.73;3.00;;;24.90;91.90;;;;;;4966978;28;20047;-79
2023/07/25 09:25:45;;;;;;;4.32;2.95;;;25.00;90.60;;;;;;4969424;28;20047;-79
2023/07/25 09:28:11;;;;;;;3.97;3.43;;;25.10;91.00;;;;;;4968667;28;20023;-79
2023/07/25 09:30:37;;;;;;;3.63;3.30;;;25.40;90.80;;;;;;4968734;28;20052;-79
2023/07/25 09:33:05;;;;;;;4.03;3.45;;;25.70;90.60;;;;;;4967137;29;20130;-79
2023/07/25 09:35:31;;;;;;;3.08;2.78;;;25.70;88.50;;;;;;4966783;29;20034;-79
2023/07/25 09:37:57;;;;;;;4.23;3.80;;;25.60;87.60;;;;;;4967957;29;20091;-79
2023/07/25 09:40:23;;;;;;;3.90;3.13;;;25.60;89.20;;;;;;4967589;28;20118;-79
2023/07/25 09:42:51;;;;;;;4.53;3.67;;;25.70;88.80;;;;;;4967594;28;20059;-79
2023/07/25 09:45:17;;;;;;;5.10;4.63;;;25.60;89.00;;;;;;4967851;28;20034;-79
2023/07/25 09:47:43;;;;;;;5.85;5.25;;;25.70;89.50;;;;;;4957247;28;20039;-79
2023/07/25 09:50:09;;;;;;;7.13;5.43;;;25.80;87.50;;;;;;4970971;28;20035;-79
2023/07/25 09:52:42;;;;;;;5.88;5.13;;;25.80;87.50;;;;;;4955941;28;20030;-79
2023/07/25 09:55:09;;;;;;;6.20;5.20;;;25.80;84.80;;;;;;4955746;28;20034;-79
2023/07/25 09:57:35;;;;;;;6.05;4.80;;;25.70;85.20;;;;;;4970443;28;20485;-78
2023/07/25 10:00:03;;;;;;;6.38;5.05;;;25.60;85.10;;;;;;4970715;28;20645;-78
2023/07/25 10:02:31;;;;;;;6.88;5.43;;;25.70;85.90;;;;;;4970350;28;20498;-79
2023/07/25 10:04:58;;;;;;;8.50;6.20;;;25.70;87.40;;;;;;4970539;28;20118;-78
2023/07/25 10:07:25;;;;;;;;;;;25.80;85.90;;;;;;4970867;28;20046;-78
2023/07/25 10:09:52;;;;;;;7.57;6.07;;;25.90;86.40;;;;;;4955822;28;20207;-79
2023/07/25 10:12:18;;;;;;;10.00;6.68;;;25.90;86.20;;;;;;4955124;29;20094;-83
2023/07/25 10:14:44;;;;;;;7.67;6.63;;;26.10;87.10;;;;;;4971349;28;20031;-80
2023/07/25 10:17:11;;;;;;;7.28;6.38;;;26.20;86.30;;;;;;4955180;29;20126;-81
2023/07/25 10:19:55;;;;;;;10.00;6.15;;;26.30;84.60;;;;;;4957333;29;20031;-83
2023/07/25 10:22:40;;;;;;;8.75;6.82;;;26.30;85.10;;;;;;4956154;29;20034;-86
2023/07/25 10:25:19;;;;;;;9.40;6.88;;;26.60;86.10;;;;;;4955396;29;20062;-83
2023/07/25 10:27:47;;;;;;;7.07;6.38;;;26.70;84.50;;;;;;4961740;28;20027;-84
2023/07/25 10:30:25;;;;;;;6.95;6.25;;;26.90;83.90;;;;;;4956209;29;20509;-82
2023/07/25 10:32:58;;;;;;;8.32;6.03;;;26.80;80.70;;;;;;4956962;28;20027;-83
2023/07/25 10:35:39;;;;;;;7.45;5.63;;;26.80;82.30;;;;;;4956001;28;20035;-83
2023/07/25 10:38:10;;;;;;;7.85;5.57;;;26.90;80.80;;;;;;4955039;29;20067;-82
2023/07/25 10:40:55;;;;;;;8.00;6.30;;;27.00;84.10;;;;;;4971172;28;20076;-84
2023/07/25 10:43:22;;;;;;;7.10;5.30;;;27.20;82.20;;;;;;4938777;29;20117;-83
2023/07/25 10:45:49;;;;;;;;;;;27.30;81.30;;;;;;4955465;29;20429;-84
2023/07/25 10:48:35;;;;;;;7.72;4.95;;;27.30;79.40;;;;;;4955426;29;19917;-84
2023/07/25 10:51:06;;;;;;;7.60;5.35;;;27.40;81.30;;;;;;4938227;29;20121;-83
2023/07/25 10:53:33;;;;;;;9.32;5.90;;;27.40;81.40;;;;;;4943133;28;20039;-82
2023/07/25 10:56:05;;;;;;;6.85;5.78;;;27.50;80.90;;;;;;4956672;28;20103;-83
2023/07/25 10:58:39;;;;;;;6.55;5.50;;;27.60;79.20;;;;;;4935733;29;20036;-82
2023/07/25 11:01:06;;;;;;;6.75;6.03;;;27.60;79.40;;;;;;4951948;29;20032;-82
2023/07/25 11:03:35;;;;;;;6.05;4.63;;;27.70;78.50;;;;;;4937760;29;20031;-82
2023/07/25 11:06:21;;;;;;;8.05;5.38;;;27.80;78.20;;;;;;4935009;29;20122;-83
2023/07/25 11:08:48;;;;;;;152.93;137.63;;;28.00;76.80;;;;;;4888912;29;20050;-84
2023/07/25 11:11:13;;;;;;;13.20;9.40;;;28.20;78.30;;;;;;4937811;29;20043;-84
2023/07/25 11:13:41;;;;;;;17.63;15.73;;;28.40;76.70;;;;;;4955361;29;20081;-84
2023/07/25 11:16:09;;;;;;;8.05;6.10;;;28.60;75.60;;;;;;4952894;29;20047;-84
2023/07/25 11:18:37;;;;;;;8.25;5.75;;;28.60;74.80;;;;;;4936945;29;20028;-82
2023/07/25 11:21:07;;;;;;;8.63;5.88;;;28.60;75.00;;;;;;4941985;29;20020;-83
2023/07/25 11:23:34;;;;;;;7.35;5.82;;;28.70;74.30;;;;;;4956035;28;20063;-82
2023/07/25 11:26:03;;;;;;;;;;;28.40;74.70;;;;;;4955695;28;20047;-82
2023/07/25 11:28:29;;;;;;;8.38;5.50;;;28.50;76.10;;;;;;4955375;29;20436;-81
2023/07/25 11:30:58;;;;;;;7.05;5.43;;;28.60;76.50;;;;;;4953745;29;20090;-82
2023/07/25 11:33:24;;;;;;;5.50;4.95;;;28.60;75.40;;;;;;4954917;29;20098;-81
2023/07/25 11:35:54;;;;;;;6.28;4.72;;;28.70;75.80;;;;;;4937658;29;20039;-81
2023/07/25 11:38:21;;;;;;;6.43;4.32;;;28.80;73.80;;;;;;4954835;28;20055;-82
2023/07/25 11:40:51;;;;;;;;;;;28.90;74.60;;;;;;4956433;28;20020;-82
2023/07/25 11:43:17;;;;;;;10.45;5.22;;;29.00;77.40;;;;;;4955355;29;20013;-82
2023/07/25 11:45:47;;;;;;;6.20;4.97;;;29.10;75.90;;;;;;4953159;29;20035;-81
2023/07/25 11:48:19;;;;;;;5.60;4.40;;;29.40;75.00;;;;;;4953154;29;20063;-81
2023/07/25 11:50:51;;;;;;;5.85;4.65;;;29.60;73.90;;;;;;4954149;29;20035;-81
2023/07/25 11:53:19;;;;;;;6.00;5.10;;;29.70;72.50;;;;;;4937469;29;20031;-81
2023/07/25 11:55:46;;;;;;;6.05;4.70;;;29.70;72.20;;;;;;4953023;29;20070;-82
2023/07/25 11:58:17;;;;;;;5.80;4.10;;;29.60;73.40;;;;;;4953124;29;20482;-82
2023/07/25 12:00:43;;;;;;;6.13;3.88;;;29.50;73.80;;;;;;4953853;29;20065;-82
2023/07/25 12:03:19;;;;;;;6.43;4.30;;;29.50;73.20;;;;;;4953657;29;20046;-81
2023/07/25 12:05:56;;;;;;;5.20;4.68;;;29.50;71.80;;;;;;4955749;28;20556;-82
2023/07/25 12:08:34;;;;;;;5.63;4.35;;;29.50;72.30;;;;;;4937510;29;20038;-82
2023/07/25 12:11:01;;;;;;;;;;;29.60;72.60;;;;;;4939659;29;20498;-82
2023/07/25 12:13:27;;;;;;;8.65;4.40;;;29.60;70.70;;;;;;4937778;29;19997;-81
2023/07/25 12:15:55;;;;;;;5.47;4.20;;;29.70;72.20;;;;;;4944419;29;20733;-82
2023/07/25 12:18:29;;;;;;;4.85;3.75;;;29.80;72.70;;;;;;4959215;28;20267;-82
2023/07/25 12:20:56;;;;;;;5.65;3.63;;;29.90;71.60;;;;;;4959706;28;20110;-81
2023/07/25 12:23:32;;;;;;;6.53;4.43;;;29.90;70.90;;;;;;4959130;29;20024;-82
2023/07/25 12:26:01;;;;;;;6.47;3.70;;;29.80;71.20;;;;;;4955961;29;20492;-82
2023/07/25 12:28:39;;;;;;;9.75;4.05;;;29.80;72.40;;;;;;4939252;29;20078;-82
2023/07/25 12:31:05;;;;;;;6.50;4.38;;;29.80;71.50;;;;;;4953339;29;20073;-84
2023/07/25 12:33:30;;;;;;;4.60;4.10;;;29.60;70.40;;;;;;4921349;29;20063;-84
2023/07/25 12:35:57;;;;;;;7.22;3.80;;;29.40;70.50;;;;;;4953167;29;20035;-84
2023/07/25 12:38:23;;;;;;;;;;;29.40;70.80;;;;;;4938114;29;20032;-84
2023/07/25 12:40:49;;;;;;;4.93;3.65;;;29.30;70.90;;;;;;4956304;29;19911;-84
2023/07/25 12:43:15;;;;;;;5.87;4.43;;;29.40;71.80;;;;;;4958364;29;20101;-84
2023/07/25 12:45:42;;;;;;;5.60;3.67;;;29.60;71.80;;;;;;4956333;29;20129;-84
2023/07/25 12:48:08;;;;;;;7.50;4.13;;;29.70;70.90;;;;;;4956050;29;20281;-84
2023/07/25 12:50:34;;;;;;;5.25;3.55;;;30.00;70.90;;;;;;4955926;29;20509;-85
2023/07/25 12:53:00;;;;;;;5.63;4.15;;;30.10;71.50;;;;;;4956997;28;20031;-84
2023/07/25 12:55:26;;;;;;;8.35;4.25;;;30.30;71.30;;;;;;4955774;29;20035;-84
2023/07/25 12:57:52;;;;;;;8.20;4.03;;;30.40;70.30;;;;;;4956806;28;20111;-84
2023/07/25 13:00:18;;;;;;;7.17;4.93;;;30.60;68.70;;;;;;4955785;29;20097;-84
2023/07/25 13:02:44;;;;;;;5.65;4.30;;;30.80;69.70;;;;;;4939548;29;20270;-84
2023/07/25 13:05:10;;;;;;;4.95;3.60;;;31.00;69.20;;;;;;4940066;29;20031;-84
2023/07/25 13:07:35;;;;;;;6.53;4.15;;;31.10;69.00;;;;;;4939365;29;20042;-84
2023/07/25 13:10:02;;;;;;;5.40;3.83;;;31.20;67.20;;;;;;4955401;29;20035;-84
2023/07/25 13:12:28;;;;;;;6.88;4.03;;;31.50;65.80;;;;;;4955621;29;20460;-84
2023/07/25 13:14:54;;;;;;;5.45;3.88;;;31.80;65.50;;;;;;5015024;23;20090;-82
2023/07/25 13:17:19;;;;;;;7.53;4.65;;;32.00;67.00;;;;;;4960860;28;20028;-83
2023/07/25 13:19:45;;;;;;;5.53;3.75;;;32.40;62.70;;;;;;4961522;29;20031;-82
2023/07/25 13:22:11;;;;;;;5.20;4.70;;;32.60;63.90;;;;;;4960535;29;20027;-83
2023/07/25 13:24:37;;;;;;;4.30;3.90;;;32.80;61.00;;;;;;4962168;29;20034;-82
2023/07/25 13:27:03;;;;;;;5.93;4.32;;;33.00;61.90;;;;;;4963097;28;20081;-83
2023/07/25 13:29:29;;;;;;;4.38;3.72;;;33.20;59.60;;;;;;4974803;28;20043;-83
2023/07/25 13:31:55;;;;;;;4.43;4.03;;;33.50;61.20;;;;;;4960625;29;20086;-82
2023/07/25 13:34:22;;;;;;;5.60;4.18;;;33.60;60.20;;;;;;4962422;29;20105;-83
2023/07/25 13:36:48;;;;;;;6.50;4.15;;;33.60;59.20;;;;;;4964877;28;20035;-87
2023/07/25 13:39:14;;;;;;;5.03;4.20;;;33.60;60.50;;;;;;4961201;28;20034;-84
2023/07/25 13:41:40;;;;;;;5.60;4.00;;;34.10;60.60;;;;;;4960419;29;20081;-82
2023/07/25 13:44:06;;;;;;;5.72;4.18;;;34.90;59.70;;;;;;4962060;29;20019;-85
2023/07/25 13:46:31;;;;;;;13.07;4.50;;;35.90;57.10;;;;;;4957248;29;20058;-84
2023/07/25 13:48:57;;;;;;;8.98;5.47;;;36.40;54.60;;;;;;4952634;29;20106;-84
2023/07/25 13:51:23;;;;;;;6.68;4.28;;;36.30;54.00;;;;;;4976321;28;20031;-84